createdAt,value
2018-07-17T00:00:34.232Z,15.60
2018-07-17T00:03:01.740Z,15.60
2018-07-17T00:05:29.807Z,15.70
2018-07-17T00:07:57.847Z,15.70
2018-07-17T00:10:25.401Z,15.80
2018-07-17T00:12:53.526Z,15.90
2018-07-17T00:15:20.912Z,15.90
2018-07-17T00:17:49.196Z,16.00
2018-07-17T00:20:17.100Z,16.00
2018-07-17T00:22:45.359Z,16.00
2018-07-17T00:25:12.871Z,16.00
2018-07-17T00:27:40.916Z,16.00
2018-07-17T00:30:09.016Z,16.00
2018-07-17T00:32:36.552Z,16.00
2018-07-17T00:35:04.836Z,16.00
2018-07-17T00:37:32.385Z,16.00
2018-07-17T00:39:59.899Z,16.00
2018-07-17T00:42:28.260Z,16.00
2018-07-17T00:44:56.116Z,15.90
2018-07-17T00:47:23.980Z,15.90
2018-07-17T00:49:51.583Z,15.80
2018-07-17T00:52:19.108Z,15.90
2018-07-17T00:54:46.652Z,15.90
2018-07-17T00:57:14.779Z,15.90
2018-07-17T00:59:42.815Z,15.90
2018-07-17T01:02:15.969Z,15.90
2018-07-17T01:04:49.295Z,15.90
2018-07-17T01:07:23.516Z,15.90
2018-07-17T01:14:59.688Z,15.90
2018-07-17T01:17:28.198Z,15.90
2018-07-17T01:19:56.112Z,15.90
2018-07-17T01:22:23.693Z,15.80
2018-07-17T01:24:51.828Z,15.90
2018-07-17T01:27:19.638Z,15.90
2018-07-17T01:29:47.136Z,15.90
2018-07-17T01:32:15.464Z,15.90
2018-07-17T01:34:43.013Z,16.00
2018-07-17T01:37:10.933Z,16.00
2018-07-17T01:39:38.431Z,16.10
2018-07-17T01:42:06.668Z,16.00
2018-07-17T01:44:34.884Z,16.00
2018-07-17T01:47:02.748Z,16.10
2018-07-17T01:49:30.236Z,16.10
2018-07-17T01:51:57.739Z,16.10
2018-07-17T01:54:25.852Z,16.10
2018-07-17T01:56:53.755Z,16.20
2018-07-17T01:59:21.767Z,16.20
2018-07-17T02:01:49.559Z,16.20
2018-07-17T02:04:17.087Z,16.20
2018-07-17T02:06:45.120Z,16.10
2018-07-17T02:09:12.999Z,16.20
2018-07-17T02:11:41.273Z,16.10
2018-07-17T02:14:09.268Z,16.00
2018-07-17T02:16:37.425Z,16.00
2018-07-17T02:19:05.812Z,16.00
2018-07-17T02:21:33.319Z,16.10
2018-07-17T02:24:00.837Z,16.00
2018-07-17T02:26:28.767Z,16.00
2018-07-17T02:28:56.293Z,16.10
2018-07-17T02:31:24.454Z,16.00
2018-07-17T02:36:19.527Z,16.00
2018-07-17T02:38:47.596Z,16.00
2018-07-17T02:41:15.119Z,16.00
2018-07-17T02:43:42.995Z,16.00
2018-07-17T02:46:10.577Z,15.90
2018-07-17T02:48:38.084Z,15.90
2018-07-17T02:51:05.671Z,15.80
2018-07-17T02:53:33.607Z,15.80
2018-07-17T02:56:01.127Z,15.70
2018-07-17T02:58:28.628Z,15.70
2018-07-17T03:00:56.862Z,15.70
2018-07-17T03:03:24.356Z,15.60
2018-07-17T03:05:52.218Z,15.70
2018-07-17T03:08:20.095Z,15.70
2018-07-17T03:10:47.916Z,15.70
2018-07-17T03:13:16.459Z,15.70
2018-07-17T03:15:44.595Z,15.60
2018-07-17T03:18:12.120Z,15.60
2018-07-17T03:20:40.310Z,15.60
2018-07-17T03:23:07.883Z,15.40
2018-07-17T03:25:35.396Z,15.30
2018-07-17T03:28:02.972Z,15.40
2018-07-17T03:30:31.207Z,15.40
2018-07-17T03:32:58.705Z,15.50
2018-07-17T03:35:26.223Z,15.50
2018-07-17T03:37:54.036Z,15.50
2018-07-17T03:40:21.892Z,15.60
2018-07-17T03:42:50.108Z,15.50
2018-07-17T03:45:18.156Z,15.50
2018-07-17T03:47:45.667Z,15.60
2018-07-17T03:50:13.580Z,15.60
2018-07-17T03:55:09.528Z,15.60
2018-07-17T03:57:37.053Z,15.50
2018-07-17T04:00:05.268Z,15.50
2018-07-17T04:05:00.217Z,15.50
2018-07-17T04:07:28.260Z,15.50
2018-07-17T04:09:56.471Z,15.50
2018-07-17T04:12:24.425Z,15.40
2018-07-17T04:14:51.932Z,15.40
2018-07-17T04:17:19.448Z,15.60
2018-07-17T04:22:14.808Z,15.60
2018-07-17T04:24:42.676Z,15.60
2018-07-17T04:27:10.212Z,15.70
2018-07-17T04:29:37.748Z,15.70
2018-07-17T04:32:05.732Z,15.60
2018-07-17T04:34:33.269Z,15.60
2018-07-17T04:37:00.775Z,15.60
2018-07-17T04:39:28.894Z,15.60
2018-07-17T04:41:56.766Z,15.70
2018-07-17T04:44:24.799Z,15.70
2018-07-17T04:46:52.792Z,15.80
2018-07-17T04:49:21.517Z,15.90
2018-07-17T04:51:50.463Z,15.90
2018-07-17T04:54:18.431Z,15.90
2018-07-17T04:56:46.509Z,15.90
2018-07-17T04:59:14.796Z,15.90
2018-07-17T05:01:42.864Z,16.00
2018-07-17T05:04:10.840Z,16.10
2018-07-17T05:06:39.014Z,16.20
2018-07-17T05:09:07.913Z,16.30
2018-07-17T05:11:36.398Z,16.30
2018-07-17T05:16:32.097Z,16.40
2018-07-17T05:19:00.009Z,16.50
2018-07-17T05:21:27.539Z,16.60
2018-07-17T05:23:55.400Z,16.70
2018-07-17T05:26:22.940Z,16.70
2018-07-17T05:28:50.477Z,16.70
2018-07-17T05:31:18.454Z,16.70
2018-07-17T05:36:13.772Z,16.90
2018-07-17T05:38:41.376Z,16.90
2018-07-17T05:41:09.195Z,17.00
2018-07-17T05:43:37.122Z,17.10
2018-07-17T05:46:05.025Z,17.20
2018-07-17T05:48:32.607Z,17.20
2018-07-17T05:51:00.175Z,17.40
2018-07-17T05:53:28.247Z,17.50
2018-07-17T05:55:55.856Z,17.60
2018-07-17T05:58:23.388Z,17.70
2018-07-17T06:00:51.807Z,17.80
2018-07-17T06:03:19.684Z,17.90
2018-07-17T06:05:47.623Z,18.00
2018-07-17T06:08:16.275Z,18.00
2018-07-17T06:10:43.759Z,18.00
2018-07-17T06:13:11.660Z,18.00
2018-07-17T06:18:06.627Z,18.10
2018-07-17T06:20:34.677Z,18.20
2018-07-17T06:23:02.193Z,18.30
2018-07-17T06:25:29.702Z,18.40
2018-07-17T06:27:57.270Z,18.40
2018-07-17T06:30:25.286Z,18.50
2018-07-17T06:32:53.337Z,18.50
2018-07-17T06:35:21.601Z,18.50
2018-07-17T06:37:49.564Z,18.50
2018-07-17T06:40:17.451Z,18.50
2018-07-17T06:42:45.395Z,18.40
2018-07-17T06:45:14.084Z,18.40
2018-07-17T06:47:41.699Z,18.40
2018-07-17T06:50:09.386Z,18.40
2018-07-17T06:52:36.855Z,18.40
2018-07-17T06:55:04.828Z,18.50
2018-07-17T06:57:32.689Z,18.50
2018-07-17T07:00:00.801Z,18.60
2018-07-17T07:02:28.372Z,18.70
2018-07-17T07:04:56.255Z,18.80
2018-07-17T07:07:24.418Z,19.00
2018-07-17T07:09:51.915Z,19.10
2018-07-17T07:12:19.795Z,19.20
2018-07-17T07:14:47.331Z,19.30
2018-07-17T07:17:14.883Z,19.30
2018-07-17T07:19:42.955Z,19.30
2018-07-17T07:22:10.845Z,19.40
2018-07-17T07:24:38.708Z,19.40
2018-07-17T07:27:06.240Z,19.50
2018-07-17T07:29:33.754Z,19.50
2018-07-17T07:32:01.636Z,19.60
2018-07-17T07:34:29.148Z,19.60
2018-07-17T07:39:24.777Z,19.70
2018-07-17T07:41:52.596Z,19.70
2018-07-17T07:44:21.045Z,19.80
2018-07-17T07:46:48.935Z,19.80
2018-07-17T07:49:16.662Z,19.80
2018-07-17T07:51:44.195Z,19.80
2018-07-17T07:54:11.739Z,19.90
2018-07-17T07:56:39.636Z,19.90
2018-07-17T07:59:07.547Z,19.90
2018-07-17T08:04:03.029Z,20.00
2018-07-17T08:06:32.125Z,20.00
2018-07-17T08:09:00.293Z,20.00
2018-07-17T08:11:28.365Z,20.00
2018-07-17T08:13:56.417Z,20.10
2018-07-17T08:18:52.084Z,20.00
2018-07-17T08:26:14.696Z,20.10
2018-07-17T08:28:42.591Z,20.00
2018-07-17T08:31:10.524Z,20.00
2018-07-17T08:33:38.596Z,20.00
2018-07-17T08:36:06.543Z,20.10
2018-07-17T08:38:34.438Z,20.20
2018-07-17T08:41:01.940Z,20.20
2018-07-17T08:43:29.936Z,20.30
2018-07-17T08:45:58.052Z,20.30
2018-07-17T08:48:25.967Z,20.60
2018-07-17T08:50:54.088Z,20.70
2018-07-17T08:53:21.897Z,20.90
2018-07-17T08:55:49.756Z,21.10
2018-07-17T08:58:17.628Z,21.20
2018-07-17T09:00:45.499Z,21.40
2018-07-17T09:03:13.479Z,21.50
2018-07-17T09:05:41.004Z,21.60
2018-07-17T09:10:37.072Z,21.50
2018-07-17T09:13:05.399Z,21.60
2018-07-17T09:15:33.340Z,21.40
2018-07-17T09:18:00.900Z,21.40
2018-07-17T09:20:29.468Z,21.50
2018-07-17T09:22:56.952Z,21.70
2018-07-17T09:25:24.548Z,21.80
2018-07-17T09:27:52.526Z,22.00
2018-07-17T09:30:20.573Z,22.10
2018-07-17T09:32:48.060Z,22.20
2018-07-17T09:35:15.964Z,22.00
2018-07-17T09:37:43.487Z,21.90
2018-07-17T09:40:12.172Z,21.90
2018-07-17T09:42:39.760Z,21.80
2018-07-17T09:45:07.991Z,21.80
2018-07-17T09:47:35.520Z,21.80
2018-07-17T09:50:03.119Z,21.90
2018-07-17T09:52:31.599Z,21.90
2018-07-17T09:54:59.332Z,22.00
2018-07-17T09:57:28.188Z,22.10
2018-07-17T09:59:56.635Z,22.20
2018-07-17T10:02:27.738Z,22.40
2018-07-17T10:04:56.222Z,22.70
2018-07-17T10:07:24.488Z,23.10
2018-07-17T10:09:52.642Z,23.50
2018-07-17T10:12:20.800Z,23.70
2018-07-17T10:14:48.318Z,23.70
2018-07-17T10:17:15.849Z,23.90
2018-07-17T10:19:43.695Z,23.80
2018-07-17T10:22:11.220Z,23.90
2018-07-17T10:24:39.070Z,23.90
2018-07-17T10:27:06.593Z,24.20
2018-07-17T10:29:34.492Z,24.30
2018-07-17T10:32:02.451Z,24.40
2018-07-17T10:36:57.959Z,24.80
2018-07-17T10:39:26.079Z,24.80
2018-07-17T10:41:53.583Z,24.90
2018-07-17T10:44:21.642Z,25.00
2018-07-17T10:46:49.215Z,24.90
2018-07-17T10:49:18.367Z,25.00
2018-07-17T10:51:46.437Z,25.00
2018-07-17T10:54:14.424Z,24.80
2018-07-17T10:59:10.367Z,24.20
2018-07-17T11:01:37.903Z,23.50
2018-07-17T11:04:05.690Z,21.80
2018-07-17T11:06:33.282Z,20.90
2018-07-17T11:09:01.094Z,19.80
2018-07-17T11:11:29.020Z,19.60
2018-07-17T11:13:56.980Z,19.30
2018-07-17T11:16:25.271Z,19.20
2018-07-17T11:18:53.233Z,19.10
2018-07-17T11:21:21.383Z,18.90
2018-07-17T11:23:48.885Z,19.00
2018-07-17T11:26:16.383Z,19.10
2018-07-17T11:28:44.612Z,19.10
2018-07-17T11:31:12.628Z,19.20
2018-07-17T11:33:40.400Z,19.20
2018-07-17T11:36:08.000Z,19.20
2018-07-17T11:38:36.029Z,18.90
2018-07-17T11:41:03.514Z,18.80
2018-07-17T11:43:31.450Z,18.60
2018-07-17T11:45:59.523Z,18.50
2018-07-17T11:48:27.420Z,18.40
2018-07-17T11:50:55.681Z,18.50
2018-07-17T11:53:23.702Z,18.50
2018-07-17T11:55:51.681Z,18.50
2018-07-17T11:58:19.707Z,18.70
2018-07-17T12:00:47.603Z,18.80
2018-07-17T12:03:15.724Z,19.00
2018-07-17T12:05:43.662Z,19.10
2018-07-17T12:08:11.621Z,19.10
2018-07-17T12:10:39.555Z,19.30
2018-07-17T12:13:07.531Z,19.40
2018-07-17T12:15:35.487Z,19.50
2018-07-17T12:18:03.476Z,19.60
2018-07-17T12:20:31.540Z,19.70
2018-07-17T12:22:58.933Z,19.60
2018-07-17T12:25:26.478Z,19.50
2018-07-17T12:27:54.108Z,19.40
2018-07-17T12:30:22.325Z,19.40
2018-07-17T12:32:49.835Z,19.40
2018-07-17T12:35:17.399Z,19.40
2018-07-17T12:37:44.949Z,19.50
2018-07-17T12:40:12.460Z,19.40
2018-07-17T12:42:40.052Z,19.40
2018-07-17T12:45:08.011Z,19.80
2018-07-17T12:47:35.507Z,20.50
2018-07-17T12:50:04.060Z,20.50
2018-07-17T12:52:31.588Z,20.40
2018-07-17T12:54:59.139Z,20.30
2018-07-17T12:57:27.254Z,20.20
2018-07-17T12:59:54.797Z,20.10
2018-07-17T13:02:22.451Z,20.10
2018-07-17T13:04:49.999Z,20.00
2018-07-17T13:07:17.828Z,20.00
2018-07-17T13:09:45.989Z,20.40
2018-07-17T13:12:14.186Z,21.00
2018-07-17T13:14:42.235Z,21.60
2018-07-17T13:17:10.392Z,22.00
2018-07-17T13:19:38.347Z,22.20
2018-07-17T13:22:05.960Z,22.10
2018-07-17T13:24:33.886Z,22.50
2018-07-17T13:27:01.831Z,22.80
2018-07-17T13:34:25.506Z,23.80
2018-07-17T13:36:53.089Z,24.10
2018-07-17T13:39:21.525Z,24.30
2018-07-17T13:41:49.711Z,24.60
2018-07-17T13:44:18.230Z,24.50
2018-07-17T13:46:46.230Z,24.30
2018-07-17T13:49:14.211Z,24.50
2018-07-17T13:51:41.759Z,24.50
2018-07-17T13:54:09.244Z,24.50
2018-07-17T13:56:36.887Z,24.50
2018-07-17T13:59:04.871Z,24.50
2018-07-17T14:01:32.398Z,25.10
2018-07-17T14:04:00.283Z,25.80
2018-07-17T14:06:27.964Z,26.50
2018-07-17T14:08:55.881Z,26.90
2018-07-17T14:11:23.463Z,27.30
2018-07-17T14:13:51.412Z,27.70
2018-07-17T14:16:18.995Z,28.20
2018-07-17T14:18:47.077Z,28.30
2018-07-17T14:21:15.762Z,28.30
2018-07-17T14:23:44.023Z,28.70
2018-07-17T14:26:11.573Z,28.80
2018-07-17T14:28:39.077Z,28.90
2018-07-17T14:31:07.164Z,28.90
2018-07-17T14:33:35.516Z,29.00
2018-07-17T14:36:03.080Z,29.40
2018-07-17T14:38:30.631Z,29.70
2018-07-17T14:40:59.856Z,28.80
2018-07-17T14:43:27.730Z,27.80
2018-07-17T14:45:55.660Z,26.80
2018-07-17T14:50:51.184Z,25.70
2018-07-17T14:53:19.416Z,25.20
2018-07-17T14:55:47.284Z,25.60
2018-07-17T14:58:15.164Z,26.60
2018-07-17T15:00:43.910Z,27.50
2018-07-17T15:05:39.232Z,28.50
2018-07-17T15:08:07.047Z,28.90
2018-07-17T15:10:34.560Z,28.80
2018-07-17T15:13:02.405Z,28.40
2018-07-17T15:15:29.961Z,27.50
2018-07-17T15:17:58.412Z,26.80
2018-07-17T15:20:26.370Z,26.40
2018-07-17T15:25:21.788Z,25.90
2018-07-17T15:27:49.343Z,25.70
2018-07-17T15:30:17.656Z,25.40
2018-07-17T15:32:45.158Z,25.40
2018-07-17T15:35:12.743Z,25.30
2018-07-17T15:37:40.852Z,26.10
2018-07-17T15:40:09.091Z,26.10
2018-07-17T15:42:37.325Z,26.10
2018-07-17T15:47:33.377Z,25.80
2018-07-17T15:52:30.054Z,26.10
2018-07-17T15:54:57.556Z,26.80
2018-07-17T15:57:25.690Z,26.70
2018-07-17T15:59:53.555Z,26.30
2018-07-17T16:02:21.567Z,25.80
2018-07-17T16:04:49.448Z,26.10
2018-07-17T16:07:16.951Z,26.70
2018-07-17T16:09:44.869Z,26.70
2018-07-17T16:12:13.828Z,26.20
2018-07-17T16:17:09.316Z,25.70
2018-07-17T16:19:37.503Z,26.30
2018-07-17T16:22:05.542Z,27.60
2018-07-17T16:24:33.032Z,28.70
2018-07-17T16:27:00.579Z,29.40
2018-07-17T16:29:28.152Z,29.00
2018-07-17T16:31:56.888Z,29.20
2018-07-17T16:34:24.517Z,29.40
2018-07-17T16:36:53.100Z,29.80
2018-07-17T16:39:20.615Z,29.80
2018-07-17T16:44:16.411Z,29.40
2018-07-17T16:46:43.898Z,29.00
2018-07-17T16:49:12.876Z,28.00
2018-07-17T16:51:40.386Z,27.50
2018-07-17T16:54:07.999Z,26.90
2018-07-17T16:56:36.328Z,26.20
2018-07-17T17:03:59.787Z,27.20
2018-07-17T17:06:29.034Z,27.10
2018-07-17T17:08:57.267Z,27.20
2018-07-17T17:11:24.782Z,26.60
2018-07-17T17:16:21.655Z,25.90
2018-07-17T17:21:17.924Z,25.40
2018-07-17T17:23:45.512Z,25.20
2018-07-17T17:28:40.799Z,24.80
2018-07-17T17:31:09.231Z,24.80
2018-07-17T17:33:37.261Z,24.80
2018-07-17T17:36:04.775Z,24.60
2018-07-17T17:38:33.461Z,24.60
2018-07-17T17:41:01.690Z,24.50
2018-07-17T17:43:29.578Z,24.40
2018-07-17T17:45:57.093Z,24.30
2018-07-17T17:48:24.614Z,24.20
2018-07-17T17:50:52.154Z,24.10
2018-07-17T17:53:20.127Z,23.80
2018-07-17T17:55:47.674Z,23.70
2018-07-17T17:58:15.659Z,23.50
2018-07-17T18:00:43.534Z,23.50
2018-07-17T18:03:11.072Z,23.40
2018-07-17T18:05:38.982Z,23.40
2018-07-17T18:10:34.416Z,23.30
2018-07-17T18:13:03.000Z,23.20
2018-07-17T18:15:31.310Z,23.20
2018-07-17T18:17:58.837Z,23.10
2018-07-17T18:20:27.081Z,23.00
2018-07-17T18:22:54.598Z,23.00
2018-07-17T18:25:22.135Z,22.90
2018-07-17T18:27:50.082Z,22.90
2018-07-17T18:30:18.005Z,22.90
2018-07-17T18:32:45.564Z,22.80
2018-07-17T18:35:13.458Z,22.70
2018-07-17T18:37:41.550Z,22.60
2018-07-17T18:40:09.188Z,22.50
2018-07-17T18:42:37.256Z,22.40
2018-07-17T18:45:05.197Z,22.30
2018-07-17T18:47:33.804Z,22.30
2018-07-17T18:50:12.583Z,22.10
2018-07-17T18:52:29.589Z,22.00
2018-07-17T18:54:57.892Z,21.80
2018-07-17T18:57:25.868Z,21.70
2018-07-17T18:59:53.485Z,21.50
2018-07-17T19:02:22.104Z,21.40
2018-07-17T19:04:50.297Z,21.20
2018-07-17T19:07:18.353Z,21.10
2018-07-17T19:09:47.846Z,21.00
2018-07-17T19:12:16.414Z,20.90
2018-07-17T19:14:44.770Z,20.80
2018-07-17T19:17:12.602Z,20.70
2018-07-17T19:19:41.188Z,20.60
2018-07-17T19:22:09.457Z,20.40
2018-07-17T19:24:37.739Z,20.30
2018-07-17T19:27:05.640Z,20.20
2018-07-17T19:29:34.779Z,20.00
2018-07-17T19:34:31.835Z,20.00
2018-07-17T19:37:00.393Z,19.90
2018-07-17T19:39:28.537Z,19.90
2018-07-17T19:41:57.070Z,19.80
2018-07-17T19:44:25.594Z,19.70
2018-07-17T19:46:53.841Z,19.70
2018-07-17T19:49:21.860Z,19.60
2018-07-17T19:51:50.372Z,19.50
2018-07-17T19:54:18.730Z,19.50
2018-07-17T19:56:46.934Z,19.40
2018-07-17T19:59:15.429Z,19.40
2018-07-17T20:01:43.476Z,19.30
2018-07-17T20:04:11.679Z,19.20
2018-07-17T20:06:40.037Z,19.10
2018-07-17T20:09:09.601Z,19.10
2018-07-17T20:11:37.950Z,19.00
2018-07-17T20:14:06.550Z,19.00
2018-07-17T20:16:34.273Z,18.90
2018-07-17T20:19:02.686Z,18.90
2018-07-17T20:21:30.812Z,18.80
2018-07-17T20:26:27.068Z,18.90
2018-07-17T20:28:55.143Z,18.90
2018-07-17T20:31:23.127Z,18.90
2018-07-17T20:33:50.660Z,18.90
2018-07-17T20:36:18.604Z,19.00
2018-07-17T20:38:46.365Z,18.90
2018-07-17T20:41:14.620Z,18.80
2018-07-17T20:43:43.065Z,18.80
2018-07-17T20:46:11.380Z,18.80
2018-07-17T20:48:39.858Z,18.80
2018-07-17T20:51:08.782Z,18.80
2018-07-17T20:53:36.951Z,18.80
2018-07-17T20:56:04.852Z,18.90
2018-07-17T20:58:33.252Z,18.90
2018-07-17T21:01:01.738Z,18.90
2018-07-17T21:03:29.396Z,18.90
2018-07-17T21:05:57.878Z,18.90
2018-07-17T21:08:25.954Z,18.90
2018-07-17T21:10:54.274Z,18.90
2018-07-17T21:13:22.518Z,18.90
2018-07-17T21:15:50.279Z,18.80
2018-07-17T21:18:18.085Z,18.80
2018-07-17T21:20:46.339Z,18.80
2018-07-17T21:23:14.705Z,18.70
2018-07-17T21:25:42.532Z,18.70
2018-07-17T21:28:11.486Z,18.70
2018-07-17T21:30:39.779Z,18.70
2018-07-17T21:33:07.553Z,18.70
2018-07-17T21:35:35.948Z,18.70
2018-07-17T21:38:05.062Z,18.70
2018-07-17T21:40:33.428Z,18.80
2018-07-17T21:43:01.635Z,18.80
2018-07-17T21:45:30.034Z,18.80
2018-07-17T21:47:59.033Z,18.70
2018-07-17T21:50:26.724Z,18.70
2018-07-17T21:52:55.937Z,18.70
2018-07-17T21:55:24.357Z,18.80
2018-07-17T21:57:52.513Z,18.80
2018-07-17T22:00:20.516Z,18.80
2018-07-17T22:02:48.281Z,18.80
2018-07-17T22:07:45.202Z,18.80
2018-07-17T22:10:13.102Z,18.80
2018-07-17T22:12:41.150Z,18.80
2018-07-17T22:15:09.378Z,18.70
2018-07-17T22:17:38.269Z,18.70
2018-07-17T22:22:34.794Z,18.60
2018-07-17T22:25:03.163Z,18.60
2018-07-17T22:27:31.032Z,18.60
2018-07-17T22:29:59.285Z,18.60
2018-07-17T22:32:27.192Z,18.60
2018-07-17T22:34:54.739Z,18.60
2018-07-17T22:37:22.263Z,18.50
2018-07-17T22:39:50.260Z,18.50
2018-07-17T22:42:17.784Z,18.50
2018-07-17T22:44:46.300Z,18.50
2018-07-17T22:47:13.997Z,18.50
2018-07-17T22:49:41.500Z,18.50
2018-07-17T22:52:09.727Z,18.50
2018-07-17T22:54:37.239Z,18.50
2018-07-17T22:57:05.572Z,18.40
2018-07-17T22:59:33.108Z,18.40
2018-07-17T23:02:01.483Z,18.40
2018-07-17T23:04:28.940Z,18.40
2018-07-17T23:06:56.439Z,18.40
2018-07-17T23:09:25.871Z,18.40
2018-07-17T23:11:53.383Z,18.30
2018-07-17T23:14:21.215Z,18.30
2018-07-17T23:16:48.724Z,18.30
2018-07-17T23:19:16.931Z,18.20
2018-07-17T23:26:40.077Z,18.20
2018-07-17T23:29:08.127Z,18.20
2018-07-17T23:31:36.016Z,18.10
2018-07-17T23:34:04.453Z,18.00
2018-07-17T23:36:32.428Z,18.00
2018-07-17T23:39:00.189Z,18.10
2018-07-17T23:41:27.680Z,18.10
2018-07-17T23:43:55.525Z,18.10
2018-07-17T23:46:23.403Z,18.20
2018-07-17T23:48:50.935Z,18.10
2018-07-17T23:51:18.784Z,18.10
2018-07-17T23:53:46.640Z,18.10
2018-07-17T23:56:14.231Z,18.20
2018-07-17T23:58:42.557Z,18.10
